Elmendorf AFB, Alaska
Current Conditions -  °F | °C
As of 8:58 AM on Friday 24 Oct 2014 (Local Time) from PAED Reporting Station
Overcast Overcast  
Wind Chill: 22°   Ceiling: 10000
Heat Index: 22°   Visibility: 10mi
Dew Point: 19°   Wind: 2mph
Humidity: 87%   Direction: 90°E
Pressure: 29.78"   Gusts: NA
Location:  61.24°N, 149.82°W
Report Text: PAED 241658Z AUTO 09002KT 10SM OVC100 M05/M07 A2978 RMK AO2 SLP082 T10531072 $
Loading
Personal Weather Stations






























Interactive Weather Map
Tropical Storm Tracking
New forecast layout! Learn more

10-Day Weather Forecast

Advertisements
Track Severe Weather on mobile